Time;durP1;ratioP1;P1;durP2;ratioP2;P2;SDS_P1;SDS_P2;PMS_P1;PMS_P2;Temp;Humidity;BMP_temperature;BMP_pressure;BME280_temperature;BME280_humidity;BME280_pressure;Samples;Min_cycle;Max_cycle;Signal;HPM_P1;HPM_P2
2021/01/06 00:01:42;;;;;;;8.27;6.07;;;;;;;12.40;52.64;100301.28;4902991;28;112942;-63
2021/01/06 00:04:08;;;;;;;7.78;6.20;;;;;;;12.40;52.51;100298.56;4894476;28;117326;-63
2021/01/06 00:06:37;;;;;;;7.35;6.07;;;;;;;12.39;52.44;100301.56;4870818;28;100480;-63
2021/01/06 00:09:03;;;;;;;7.72;6.25;;;;;;;12.41;52.42;100297.47;4891373;28;99326;-63
2021/01/06 00:11:40;;;;;;;6.72;5.90;;;;;;;12.35;52.78;100287.81;4902713;28;118461;-63
2021/01/06 00:14:08;;;;;;;8.10;6.03;;;;;;;12.40;52.52;100289.66;4896188;28;98034;-63
2021/01/06 00:16:34;;;;;;;7.13;5.88;;;;;;;12.38;52.46;100291.81;4902923;28;115404;-63
2021/01/06 00:19:00;;;;;;;7.28;5.82;;;;;;;12.39;52.58;100293.47;4893731;28;128957;-63
2021/01/06 00:21:26;;;;;;;7.70;6.10;;;;;;;12.40;52.03;100287.75;4902280;28;124308;-63
2021/01/06 00:23:52;;;;;;;7.38;6.05;;;;;;;12.40;52.73;100290.47;4894495;28;101161;-63
2021/01/06 00:26:18;;;;;;;7.63;6.25;;;;;;;12.40;52.92;100292.38;4884050;28;121180;-63
2021/01/06 00:28:44;;;;;;;8.18;6.00;;;;;;;12.39;52.63;100291.56;4894910;28;98416;-63
2021/01/06 00:31:10;;;;;;;7.25;5.93;;;;;;;12.42;52.64;100290.19;4902336;28;127394;-62
2021/01/06 00:33:37;;;;;;;6.95;6.07;;;;;;;12.44;52.33;100291.50;4884752;28;118098;-62
2021/01/06 00:36:17;;;;;;;8.43;6.35;;;;;;;12.50;52.23;100292.28;4882882;28;98472;-62
2021/01/06 00:38:43;;;;;;;9.23;6.28;;;;;;;12.53;51.91;100300.59;4894251;28;98697;-62
2021/01/06 00:41:09;;;;;;;8.25;6.38;;;;;;;12.56;52.09;100293.03;4901244;28;127626;-62
2021/01/06 00:43:35;;;;;;;7.63;6.10;;;;;;;12.57;52.24;100297.34;4893335;28;118685;-63
2021/01/06 00:46:01;;;;;;;6.63;5.80;;;;;;;12.60;52.00;100291.38;4902963;28;104055;-63
2021/01/06 00:48:27;;;;;;;7.80;6.53;;;;;;;12.60;52.00;100294.06;4892974;28;126955;-62
2021/01/06 00:50:53;;;;;;;8.20;6.25;;;;;;;12.61;51.96;100292.97;4902044;28;126590;-62
2021/01/06 00:53:26;;;;;;;6.88;5.78;;;;;;;12.62;51.75;100291.91;4893412;28;119001;-63
2021/01/06 00:55:53;;;;;;;7.15;5.93;;;;;;;12.61;51.84;100292.97;4920754;28;98456;-63
2021/01/06 00:58:19;;;;;;;7.57;5.95;;;;;;;12.60;52.06;100300.28;4921766;28;98518;-63
2021/01/06 01:00:46;;;;;;;6.68;5.60;;;;;;;12.61;52.11;100295.69;4921112;28;98035;-62
2021/01/06 01:03:13;;;;;;;6.20;5.32;;;;;;;12.62;51.75;100294.63;4921000;28;97777;-62
2021/01/06 01:05:39;;;;;;;6.80;5.53;;;;;;;12.61;51.83;100282.97;4905677;28;117265;-62
2021/01/06 01:08:07;;;;;;;6.63;5.65;;;;;;;12.62;52.06;100287.31;4901152;28;128538;-62
2021/01/06 01:10:39;;;;;;;7.25;5.65;;;;;;;12.62;51.92;100289.22;4902502;28;111475;-63
2021/01/06 01:13:12;;;;;;;;;;;;;;;12.58;52.05;100286.25;4902129;28;98629;-63
2021/01/06 01:15:38;;;;;;;6.00;4.93;;;;;;;12.59;52.32;100284.34;4908056;28;98602;-63
2021/01/06 01:18:06;;;;;;;7.05;5.68;;;;;;;12.59;52.07;100282.47;4921218;28;98260;-63
2021/01/06 01:20:32;;;;;;;6.95;5.68;;;;;;;12.61;51.83;100284.88;4920761;28;97983;-62
2021/01/06 01:22:58;;;;;;;7.32;5.25;;;;;;;12.60;52.07;100286.78;4919617;28;117865;-63
2021/01/06 01:25:26;;;;;;;7.03;5.43;;;;;;;12.62;52.14;100278.38;4922094;28;128065;-64
2021/01/06 01:27:52;;;;;;;6.60;5.32;;;;;;;12.62;52.02;100278.38;4921794;28;99318;-63
2021/01/06 01:30:25;;;;;;;6.80;5.63;;;;;;;12.60;52.03;100281.34;4921828;28;98125;-63
2021/01/06 01:32:52;;;;;;;7.63;5.40;;;;;;;12.61;51.91;100280.25;4911820;28;97898;-63
2021/01/06 01:35:21;;;;;;;6.20;4.95;;;;;;;12.60;51.88;100281.34;4883156;28;126921;-63
2021/01/06 01:37:47;;;;;;;6.65;4.97;;;;;;;12.58;51.84;100270.03;4882889;28;117866;-63
2021/01/06 01:40:20;;;;;;;7.40;5.53;;;;;;;12.60;52.07;100273.25;4901652;28;105287;-62
2021/01/06 01:42:46;;;;;;;;;;;;;;;12.55;52.19;100277.91;4902820;28;97713;-63
2021/01/06 01:45:13;;;;;;;7.30;5.50;;;;;;;12.57;52.10;100275.72;4902054;28;98446;-62
2021/01/06 01:47:55;;;;;;;6.78;5.30;;;;;;;12.53;52.41;100270.88;4900339;28;128007;-63
2021/01/06 01:50:21;;;;;;;;;;;;;;;12.51;52.18;100275.78;4885226;28;112004;-63
2021/01/06 01:52:51;;;;;;;7.63;5.60;;;;;;;12.54;52.39;100271.69;4902395;28;117267;-63
2021/01/06 01:55:18;;;;;;;6.78;4.95;;;;;;;12.58;52.03;100270.03;4888224;28;98953;-63
2021/01/06 01:57:52;;;;;;;6.78;4.97;;;;;;;12.57;51.89;100275.72;4904475;28;98898;-63
2021/01/06 02:00:20;;;;;;;7.57;5.20;;;;;;;12.56;52.31;100272.22;4889088;28;98686;-63
2021/01/06 02:03:41;;;;;;;7.75;5.57;;;;;;;12.53;52.33;100276.28;4919414;28;98311;-63
2021/01/06 02:06:41;;;;;;;6.40;5.50;;;;;;;12.53;52.22;100268.16;4844032;28;100168;-63
2021/01/06 02:09:22;;;;;;;7.03;5.30;;;;;;;12.55;52.45;100269.81;4871090;28;122381;-62
2021/01/06 02:11:58;;;;;;;8.00;5.90;;;;;;;12.56;52.49;100257.88;4887264;28;97980;-63
2021/01/06 02:14:35;;;;;;;6.82;5.32;;;;;;;12.56;52.37;100257.88;4863908;28;105288;-63
2021/01/06 02:17:10;;;;;;;7.32;5.55;;;;;;;12.56;52.37;100257.88;4886495;28;116651;-63
2021/01/06 02:19:42;;;;;;;6.85;5.60;;;;;;;12.57;52.10;100249.47;4897736;28;98459;-62
2021/01/06 02:22:12;;;;;;;7.13;5.05;;;;;;;12.57;52.06;100248.69;4922731;28;98430;-63
2021/01/06 02:24:38;;;;;;;8.40;5.38;;;;;;;12.58;52.29;100261.13;4895992;28;98912;-63
2021/01/06 02:27:04;;;;;;;7.53;5.25;;;;;;;12.60;52.21;100258.94;4919362;28;98521;-63
2021/01/06 02:29:31;;;;;;;6.95;5.57;;;;;;;12.58;52.22;100253.81;4904925;28;99579;-63
2021/01/06 02:31:57;;;;;;;6.72;5.10;;;;;;;12.59;52.21;100252.72;4886982;28;97929;-63
2021/01/06 02:34:23;;;;;;;7.80;5.72;;;;;;;12.58;52.04;100253.81;4901804;28;116522;-62
2021/01/06 02:36:49;;;;;;;5.90;4.97;;;;;;;12.59;52.37;100241.91;4886187;28;99046;-62
2021/01/06 02:39:16;;;;;;;6.82;5.10;;;;;;;12.60;52.23;100237.28;4901983;28;125913;-63
2021/01/06 02:41:42;;;;;;;6.30;4.78;;;;;;;12.59;52.10;100247.31;4901893;28;97927;-62
2021/01/06 02:44:08;;;;;;;6.35;4.82;;;;;;;12.60;52.30;100240.00;4895585;28;117548;-63
2021/01/06 02:46:35;;;;;;;7.15;5.03;;;;;;;12.59;52.05;100236.50;4901990;28;110127;-63
2021/01/06 02:49:01;;;;;;;5.63;4.72;;;;;;;12.60;52.07;100234.59;4894843;28;98630;-62
2021/01/06 02:51:42;;;;;;;6.35;5.03;;;;;;;12.58;52.52;100231.38;4885668;28;98799;-63
2021/01/06 02:54:11;;;;;;;6.45;4.85;;;;;;;12.60;52.43;100227.28;4886259;28;98090;-62
2021/01/06 02:56:38;;;;;;;5.70;4.72;;;;;;;12.61;52.05;100226.19;4877178;28;114563;-62
2021/01/06 02:59:05;;;;;;;5.68;4.50;;;;;;;12.62;52.47;100224.31;4889548;28;110180;-62
2021/01/06 03:01:34;;;;;;;7.00;4.40;;;;;;;12.60;52.23;100221.06;4906011;28;98271;-62
2021/01/06 03:04:00;;;;;;;5.60;4.07;;;;;;;12.61;52.50;100223.47;4904472;28;102353;-62
2021/01/06 03:06:41;;;;;;;6.43;4.40;;;;;;;12.61;52.37;100223.47;4893496;28;128923;-63
2021/01/06 03:09:23;;;;;;;5.90;4.18;;;;;;;12.63;52.38;100212.41;4905984;28;116232;-62
2021/01/06 03:11:49;;;;;;;4.65;4.10;;;;;;;12.64;52.27;100211.28;4923682;28;98442;-63
2021/01/06 03:14:15;;;;;;;5.20;4.20;;;;;;;12.63;52.25;100212.41;4905724;28;98181;-62
2021/01/06 03:16:41;;;;;;;5.95;4.55;;;;;;;12.63;52.20;100220.50;4921159;28;125848;-63
2021/01/06 03:19:08;;;;;;;5.05;4.05;;;;;;;12.65;52.40;100212.91;4904485;28;129022;-62
2021/01/06 03:21:34;;;;;;;4.90;4.22;;;;;;;12.65;52.26;100207.50;4921866;28;98077;-62
2021/01/06 03:24:00;;;;;;;5.65;4.30;;;;;;;12.63;52.41;100201.59;4884336;28;119442;-63
2021/01/06 03:26:26;;;;;;;5.00;4.32;;;;;;;12.64;52.41;100197.78;4884976;28;127782;-64
2021/01/06 03:28:52;;;;;;;5.93;4.22;;;;;;;12.63;52.41;100196.97;4890445;28;98624;-63
2021/01/06 03:31:36;;;;;;;5.55;4.07;;;;;;;12.60;52.46;100197.53;4896952;28;128542;-63
2021/01/06 03:34:07;;;;;;;5.53;4.20;;;;;;;12.60;52.61;100197.53;4890411;28;110237;-63
2021/01/06 03:36:38;;;;;;;5.22;3.92;;;;;;;12.59;52.57;100195.13;4888853;28;98918;-63
2021/01/06 03:39:15;;;;;;;5.30;4.30;;;;;;;12.60;52.58;100194.84;4888533;28;114420;-63
2021/01/06 03:41:41;;;;;;;4.85;3.78;;;;;;;12.62;52.65;100191.88;4904781;28;114667;-62
2021/01/06 03:44:09;;;;;;;4.75;3.97;;;;;;;12.62;52.59;100189.16;4904438;28;117229;-62
2021/01/06 03:47:14;;;;;;;5.63;3.90;;;;;;;12.59;52.59;100192.44;4891642;28;119365;-63
2021/01/06 03:49:59;;;;;;;5.28;3.30;;;;;;;12.57;52.74;100190.00;4901833;28;98261;-63
2021/01/06 03:52:44;;;;;;;4.90;3.55;;;;;;;12.57;52.93;100190.00;4885395;28;104447;-63
2021/01/06 03:55:19;;;;;;;4.15;3.10;;;;;;;12.58;52.75;100188.13;4904337;28;97996;-63
2021/01/06 03:57:45;;;;;;;4.53;3.40;;;;;;;12.61;52.57;100188.31;4903773;28;117631;-63
2021/01/06 04:00:39;;;;;;;4.97;3.20;;;;;;;12.61;52.64;100188.31;4888266;28;126239;-63
2021/01/06 04:03:11;;;;;;;4.30;3.10;;;;;;;12.58;52.85;100186.22;4871541;28;113435;-63
2021/01/06 04:05:37;;;;;;;5.82;3.30;;;;;;;12.60;52.77;100180.50;4876063;28;98070;-63
2021/01/06 04:08:04;;;;;;;4.70;3.28;;;;;;;12.61;52.94;100188.31;4920432;28;126061;-63
2021/01/06 04:10:37;;;;;;;3.38;2.75;;;;;;;12.60;52.76;100188.63;4887884;28;97965;-63
2021/01/06 04:13:04;;;;;;;3.20;2.60;;;;;;;12.62;52.68;100189.16;4889138;28;97952;-63
2021/01/06 04:15:30;;;;;;;3.67;3.00;;;;;;;12.62;52.74;100191.88;4922756;28;97882;-63
2021/01/06 04:17:56;;;;;;;3.97;2.80;;;;;;;12.63;52.83;100188.88;4921711;28;128364;-63
2021/01/06 04:20:34;;;;;;;3.05;2.47;;;;;;;12.60;52.54;100180.50;4914732;28;128682;-63
2021/01/06 04:23:05;;;;;;;3.25;2.40;;;;;;;12.59;52.84;100182.41;4902879;28;98413;-63
2021/01/06 04:25:36;;;;;;;3.20;2.17;;;;;;;12.61;52.82;100176.72;4902159;28;101078;-62
2021/01/06 04:28:08;;;;;;;3.05;2.30;;;;;;;12.61;52.77;100174.00;4910098;28;98538;-63
2021/01/06 04:30:40;;;;;;;3.22;2.30;;;;;;;12.61;52.43;100168.59;4922318;28;98797;-63
2021/01/06 04:33:13;;;;;;;3.53;2.55;;;;;;;12.61;52.84;100172.09;4920139;28;98150;-63
2021/01/06 04:35:39;;;;;;;4.38;2.63;;;;;;;12.60;52.53;100170.50;4921950;28;105972;-63
2021/01/06 04:38:05;;;;;;;3.75;2.50;;;;;;;12.63;52.61;100161.81;4921871;28;100556;-63
2021/01/06 04:40:39;;;;;;;3.25;2.40;;;;;;;12.59;52.89;100166.19;4922743;28;98736;-63
2021/01/06 04:43:36;;;;;;;2.92;2.20;;;;;;;12.60;53.12;100172.41;4922394;28;98569;-63
2021/01/06 04:46:26;;;;;;;3.70;2.50;;;;;;;12.60;53.05;100161.59;4920889;28;97834;-63
2021/01/06 04:49:02;;;;;;;4.55;2.40;;;;;;;12.59;52.86;100152.69;4886079;28;98701;-63
2021/01/06 04:51:33;;;;;;;2.40;1.92;;;;;;;12.62;52.96;100149.41;4901337;28;99477;-63
2021/01/06 04:54:37;;;;;;;2.43;1.70;;;;;;;12.60;52.91;100156.19;4896836;28;97979;-63
2021/01/06 04:57:27;;;;;;;;;;;;;;;12.55;53.01;100150.84;4865786;28;98480;-63
2021/01/06 05:00:12;;;;;;;3.60;1.98;;;;;;;12.57;52.93;100151.34;4881450;28;99572;-63
2021/01/06 05:03:25;;;;;;;3.10;1.98;;;;;;;12.58;53.08;100144.88;4862409;28;99071;-64
2021/01/06 05:06:25;;;;;;;3.17;2.20;;;;;;;12.62;52.80;100151.31;4877927;28;98099;-64
2021/01/06 05:08:52;;;;;;;3.22;1.98;;;;;;;12.59;52.91;100146.47;4884043;28;97987;-63
2021/01/06 05:11:34;;;;;;;2.35;1.80;;;;;;;12.59;52.91;100149.16;4864520;28;98465;-63
2021/01/06 05:14:04;;;;;;;2.28;1.58;;;;;;;12.61;53.20;100155.09;4872329;28;101260;-63
2021/01/06 05:16:41;;;;;;;2.58;1.77;;;;;;;12.60;52.50;100154.28;4902522;28;98006;-63
2021/01/06 05:19:17;;;;;;;2.40;1.60;;;;;;;12.65;52.96;100158.81;4884328;28;107602;-63
2021/01/06 05:21:43;;;;;;;3.05;1.83;;;;;;;12.64;52.94;100154.50;4900170;28;99913;-63
2021/01/06 05:24:22;;;;;;;2.40;1.55;;;;;;;12.62;52.74;100154.00;4883094;28;127127;-63
2021/01/06 05:27:18;;;;;;;2.42;1.75;;;;;;;12.62;53.01;100157.50;4899589;28;99444;-63
2021/01/06 05:29:58;;;;;;;2.95;1.73;;;;;;;12.64;53.03;100158.00;4900341;28;98119;-63
2021/01/06 05:32:33;;;;;;;3.33;1.83;;;;;;;12.65;53.10;100150.72;4900212;28;98549;-63
2021/01/06 05:35:07;;;;;;;2.45;1.20;;;;;;;12.67;52.92;100141.22;4884148;28;98689;-63
2021/01/06 05:37:33;;;;;;;1.83;1.23;;;;;;;12.68;52.81;100144.72;4899732;28;100041;-63
2021/01/06 05:40:07;;;;;;;2.35;1.58;;;;;;;12.66;52.77;100141.53;4902821;28;97863;-62
2021/01/06 05:42:52;;;;;;;2.85;1.50;;;;;;;12.69;52.66;100140.91;4881815;28;97853;-63
2021/01/06 05:45:26;;;;;;;1.80;1.33;;;;;;;12.68;52.92;100133.91;4866498;28;112875;-62
2021/01/06 05:48:01;;;;;;;1.90;1.10;;;;;;;12.64;52.76;100136.38;4883096;28;97890;-63
2021/01/06 05:50:38;;;;;;;1.73;1.10;;;;;;;12.65;52.94;100138.00;4865200;28;98088;-63
2021/01/06 05:53:13;;;;;;;2.10;1.00;;;;;;;12.67;52.82;100137.72;4864456;28;99317;-63
2021/01/06 05:55:41;;;;;;;1.52;0.82;;;;;;;12.71;52.65;100130.63;4882796;28;111724;-62
2021/01/06 05:58:28;;;;;;;1.80;1.20;;;;;;;12.69;52.74;100128.22;4867243;28;118976;-63
2021/01/06 06:01:13;;;;;;;2.00;0.90;;;;;;;12.68;52.89;100126.59;4900606;28;107718;-62
2021/01/06 06:04:05;;;;;;;2.42;0.95;;;;;;;12.64;53.08;100125.56;4899355;28;98751;-63
2021/01/06 06:06:54;;;;;;;2.00;0.87;;;;;;;12.64;53.05;100128.28;4883779;28;98597;-62
2021/01/06 06:10:12;;;;;;;1.50;0.82;;;;;;;12.64;52.73;100130.97;4908854;28;98722;-62
2021/01/06 06:13:06;;;;;;;1.67;0.98;;;;;;;12.66;52.79;100128.81;4898842;28;99600;-63
2021/01/06 06:15:55;;;;;;;1.52;0.88;;;;;;;12.64;52.95;100130.97;4906946;28;99120;-63
2021/01/06 06:18:47;;;;;;;1.48;0.70;;;;;;;12.66;52.80;100142.31;4903754;28;98116;-63
2021/01/06 06:21:58;;;;;;;1.40;0.90;;;;;;;12.64;52.99;100141.78;4906115;28;98023;-63
2021/01/06 06:24:56;;;;;;;1.35;0.65;;;;;;;12.64;52.73;100136.38;4919285;28;102087;-63
2021/01/06 06:27:47;;;;;;;1.13;0.70;;;;;;;12.65;52.70;100135.28;4900818;28;99206;-63
2021/01/06 06:30:30;;;;;;;1.08;0.57;;;;;;;12.65;53.04;100137.19;4917270;28;99027;-63
2021/01/06 06:32:56;;;;;;;1.30;0.52;;;;;;;12.70;52.76;100143.34;4919035;28;98513;-63
2021/01/06 06:35:34;;;;;;;1.30;0.60;;;;;;;12.66;52.68;100145.03;4886860;28;98059;-63
2021/01/06 06:38:03;;;;;;;1.30;0.60;;;;;;;12.70;52.95;100146.06;4902473;28;118634;-63
2021/01/06 06:41:04;;;;;;;2.00;0.80;;;;;;;12.67;52.85;100143.13;4924015;28;120545;-62
2021/01/06 06:43:39;;;;;;;1.67;0.70;;;;;;;12.65;52.96;100146.09;4915689;28;98466;-63
2021/01/06 06:46:43;;;;;;;1.55;0.77;;;;;;;12.65;52.81;100146.09;4924875;28;98142;-63
2021/01/06 06:49:12;;;;;;;1.10;0.50;;;;;;;12.67;52.81;100143.13;4908080;28;98251;-62
2021/01/06 06:52:16;;;;;;;1.00;0.40;;;;;;;12.64;52.87;100147.19;4923819;28;98625;-62
2021/01/06 06:55:10;;;;;;;1.85;0.50;;;;;;;12.66;52.61;100149.63;4921829;28;100365;-63
2021/01/06 06:57:58;;;;;;;1.40;0.50;;;;;;;12.66;52.59;100155.84;4919238;28;97715;-63
2021/01/06 07:00:26;;;;;;;1.50;0.40;;;;;;;12.69;52.76;100152.56;4900365;28;98011;-63
2021/01/06 07:02:58;;;;;;;0.90;0.40;;;;;;;12.68;52.90;100159.06;4884556;28;98863;-62
2021/01/06 07:05:46;;;;;;;1.27;0.57;;;;;;;12.68;52.79;100160.94;4892689;28;98517;-63
2021/01/06 07:08:42;;;;;;;1.15;0.35;;;;;;;12.65;52.70;100164.22;4904230;28;104770;-63
2021/01/06 07:11:30;;;;;;;1.10;0.40;;;;;;;12.66;52.77;100163.16;4918767;28;107571;-62
2021/01/06 07:14:00;;;;;;;1.20;0.40;;;;;;;12.71;52.88;100163.88;4902240;28;118681;-62
2021/01/06 07:16:52;;;;;;;1.00;0.40;;;;;;;12.76;52.54;100160.31;4920791;28;98178;-62
2021/01/06 07:19:29;;;;;;;1.00;0.32;;;;;;;12.81;52.48;100167.56;4902061;28;98226;-63
2021/01/06 07:22:21;;;;;;;1.00;0.40;;;;;;;12.83;52.48;100168.88;4903426;28;98746;-62
2021/01/06 07:25:05;;;;;;;0.90;0.35;;;;;;;12.85;52.30;100160.47;4918888;28;98503;-62
2021/01/06 07:27:32;;;;;;;0.85;0.40;;;;;;;12.90;52.22;100169.34;4920145;28;98075;-62
2021/01/06 07:29:58;;;;;;;0.70;0.30;;;;;;;12.93;52.23;100168.78;4886533;28;99361;-62
2021/01/06 07:32:42;;;;;;;1.10;0.40;;;;;;;12.93;52.32;100163.38;4912153;28;98933;-62
2021/01/06 07:35:19;;;;;;;0.88;0.30;;;;;;;12.94;52.71;100170.38;4881205;28;98491;-62
2021/01/06 07:37:46;;;;;;;0.50;0.20;;;;;;;12.95;52.24;100169.28;4882964;28;116060;-62
2021/01/06 07:40:23;;;;;;;0.60;0.20;;;;;;;12.95;52.37;100171.19;4882810;28;106565;-62
2021/01/06 07:43:16;;;;;;;1.00;0.20;;;;;;;12.94;52.76;100178.50;4883311;28;98465;-62
2021/01/06 07:46:14;;;;;;;0.80;0.30;;;;;;;12.93;52.85;100176.88;4900948;28;98795;-62
2021/01/06 07:48:43;;;;;;;0.85;0.20;;;;;;;12.93;53.07;100174.19;4868600;28;98282;-62
2021/01/06 07:51:31;;;;;;;0.82;0.30;;;;;;;12.93;53.20;100176.06;4900951;28;97958;-62
2021/01/06 07:54:04;;;;;;;0.60;0.20;;;;;;;12.94;53.41;100177.69;4901260;28;98982;-62
2021/01/06 07:57:08;;;;;;;0.73;0.30;;;;;;;12.94;53.43;100186.59;4901861;28;98942;-62
2021/01/06 07:59:46;;;;;;;0.70;0.40;;;;;;;12.91;53.79;100179.06;4901044;28;98363;-63
2021/01/06 08:02:19;;;;;;;0.68;0.30;;;;;;;12.94;53.83;100174.97;4883457;28;98343;-63
2021/01/06 08:04:55;;;;;;;1.45;0.32;;;;;;;12.94;53.37;100170.38;4883193;28;98213;-62
2021/01/06 08:07:22;;;;;;;0.90;0.30;;;;;;;12.97;54.02;100179.81;4900342;28;99050;-62
2021/01/06 08:09:48;;;;;;;0.80;0.30;;;;;;;12.96;54.08;100175.47;4882595;28;99889;-63
2021/01/06 08:12:53;;;;;;;1.08;0.30;;;;;;;12.95;54.16;100176.59;4882154;28;110865;-63
2021/01/06 08:15:27;;;;;;;0.95;0.32;;;;;;;12.98;54.23;100181.44;4887187;28;98139;-62
2021/01/06 08:18:12;;;;;;;0.50;0.20;;;;;;;12.96;54.49;100184.41;4898388;28;98032;-62
2021/01/06 08:21:00;;;;;;;0.60;0.20;;;;;;;12.99;54.53;100181.13;4891867;28;99270;-63
2021/01/06 08:23:46;;;;;;;0.98;0.30;;;;;;;13.00;54.60;100182.72;4898905;28;98078;-63
2021/01/06 08:26:52;;;;;;;0.90;0.30;;;;;;;12.99;54.72;100188.44;4899462;28;98588;-62
2021/01/06 08:29:29;;;;;;;0.52;0.20;;;;;;;12.97;54.81;100180.63;4907330;28;114471;-63
2021/01/06 08:32:05;;;;;;;0.70;0.20;;;;;;;12.99;55.04;100189.25;4899697;28;121388;-63
2021/01/06 08:34:38;;;;;;;1.17;0.22;;;;;;;13.01;54.89;100181.66;4899424;28;97805;-62
2021/01/06 08:37:12;;;;;;;0.63;0.17;;;;;;;13.02;54.82;100180.56;4901772;28;98140;-63
2021/01/06 08:39:59;;;;;;;0.50;0.20;;;;;;;13.04;54.80;100182.97;4898591;28;98718;-63
2021/01/06 08:42:45;;;;;;;0.50;0.10;;;;;;;13.07;54.92;100184.28;4897684;28;120215;-62
2021/01/06 08:45:21;;;;;;;0.40;0.10;;;;;;;13.06;55.05;100183.47;4882972;28;97822;-63
2021/01/06 08:47:47;;;;;;;0.57;0.20;;;;;;;13.07;54.94;100184.28;4881789;28;98305;-63
2021/01/06 08:50:16;;;;;;;0.85;0.20;;;;;;;13.07;55.09;100184.28;4900269;28;98304;-62
2021/01/06 08:53:03;;;;;;;0.90;0.20;;;;;;;13.10;55.26;100181.81;4913477;28;98461;-63
2021/01/06 08:55:35;;;;;;;0.30;0.10;;;;;;;13.12;55.07;100179.59;4919756;28;98115;-62
2021/01/06 08:58:04;;;;;;;0.30;0.10;;;;;;;13.13;54.91;100186.66;4899992;28;98675;-63
2021/01/06 09:00:36;;;;;;;0.35;0.10;;;;;;;13.14;54.95;100182.84;4905299;28;99081;-62
2021/01/06 09:03:09;;;;;;;;;;;;;;;13.13;55.09;100183.94;4919029;28;98548;-62
2021/01/06 09:05:46;;;;;;;0.57;0.10;;;;;;;13.14;55.18;100188.25;4918093;28;98080;-63
2021/01/06 09:08:19;;;;;;;0.20;0.10;;;;;;;13.16;54.98;100182.53;4917574;28;98372;-63
2021/01/06 09:11:26;;;;;;;0.32;0.10;;;;;;;13.17;54.95;100179.56;4916453;28;99127;-63
2021/01/06 09:14:16;;;;;;;0.45;0.10;;;;;;;13.16;55.22;100183.34;4888911;28;98547;-63
2021/01/06 09:17:00;;;;;;;0.35;0.10;;;;;;;13.17;55.37;100178.75;4919077;28;97845;-62
2021/01/06 09:19:35;;;;;;;0.85;0.10;;;;;;;13.18;54.99;100183.88;4879738;28;107465;-63
2021/01/06 09:22:01;;;;;;;0.43;0.10;;;;;;;13.21;55.11;100187.91;4897351;28;109122;-62
2021/01/06 09:24:34;;;;;;;0.30;0.10;;;;;;;13.20;55.09;100188.97;4895778;28;127834;-63
2021/01/06 09:27:45;;;;;;;0.32;0.03;;;;;;;13.23;55.13;100185.72;4881414;28;98167;-63
2021/01/06 09:30:34;;;;;;;0.22;0.00;;;;;;;13.24;55.08;100187.31;4871141;28;105991;-63
2021/01/06 09:33:01;;;;;;;0.10;0.00;;;;;;;13.25;55.22;100186.25;4895666;28;98507;-62
2021/01/06 09:35:32;;;;;;;0.10;0.00;;;;;;;13.27;55.14;100173.22;4881355;28;98209;-63
2021/01/06 09:38:42;;;;;;;0.40;0.00;;;;;;;13.26;55.65;100177.03;4881175;28;105300;-62
2021/01/06 09:41:14;;;;;;;0.20;0.00;;;;;;;13.29;55.22;100183.75;4898233;28;98835;-62
2021/01/06 09:43:56;;;;;;;0.10;0.00;;;;;;;13.29;55.06;100178.34;4881442;28;100940;-62
2021/01/06 09:46:51;;;;;;;0.30;0.00;;;;;;;13.27;55.19;100174.00;4881298;28;98473;-62
2021/01/06 09:49:53;;;;;;;0.30;0.00;;;;;;;13.30;55.20;100178.06;4866282;28;98124;-62
2021/01/06 09:52:32;;;;;;;0.00;0.00;;;;;;;13.29;55.21;100179.16;4882909;28;111601;-63
2021/01/06 09:54:58;;;;;;;0.22;0.00;;;;;;;13.33;55.47;100182.09;4900500;28;117782;-63
2021/01/06 09:57:24;;;;;;;0.20;0.00;;;;;;;13.33;55.56;100182.09;4898373;28;103498;-62
2021/01/06 09:59:54;;;;;;;0.85;0.00;;;;;;;13.33;55.30;100180.19;4895335;28;97904;-64
2021/01/06 10:02:25;;;;;;;0.20;0.00;;;;;;;13.29;55.44;100172.94;4897101;28;118961;-63
2021/01/06 10:04:58;;;;;;;0.38;0.00;;;;;;;13.29;55.71;100178.34;4913958;28;98949;-63
2021/01/06 10:07:43;;;;;;;;;;;;;;;13.25;55.75;100178.94;4882490;28;98306;-62
2021/01/06 10:10:21;;;;;;;0.25;0.00;;;;;;;13.24;55.38;100184.63;4914894;28;98009;-62
2021/01/06 10:12:59;;;;;;;0.28;0.00;;;;;;;13.25;55.70;100173.50;4917383;28;98196;-63
2021/01/06 10:15:40;;;;;;;0.75;0.00;;;;;;;13.26;55.76;100179.72;4903869;28;98958;-63
2021/01/06 10:18:45;;;;;;;0.13;0.00;;;;;;;13.27;55.78;100175.91;4915043;28;98082;-63
2021/01/06 10:21:41;;;;;;;0.20;0.00;;;;;;;13.26;55.81;100174.31;4918936;28;98737;-62
2021/01/06 10:24:32;;;;;;;0.35;0.00;;;;;;;13.26;55.96;100167.00;4911673;28;98193;-62
2021/01/06 10:27:11;;;;;;;0.15;0.00;;;;;;;13.28;55.88;100164.00;4921746;28;98508;-63
2021/01/06 10:29:47;;;;;;;0.20;0.00;;;;;;;13.30;55.84;100163.72;4919717;28;98126;-63
2021/01/06 10:32:12;;;;;;;0.20;0.00;;;;;;;13.33;55.60;100161.22;4919552;28;97969;-64
2021/01/06 10:34:44;;;;;;;0.10;0.00;;;;;;;13.36;55.67;100160.66;4915435;28;98489;-62
2021/01/06 10:37:30;;;;;;;0.20;0.00;;;;;;;13.37;55.80;100154.13;4920571;28;99182;-62
2021/01/06 10:40:14;;;;;;;0.20;0.00;;;;;;;13.37;55.71;100156.84;4896655;28;97973;-62
2021/01/06 10:42:40;;;;;;;0.45;0.00;;;;;;;13.36;55.86;100162.53;4902465;28;98272;-62
2021/01/06 10:45:17;;;;;;;0.10;0.00;;;;;;;13.33;56.04;100165.84;4902017;28;127814;-62
2021/01/06 10:47:49;;;;;;;0.10;0.00;;;;;;;13.31;55.88;100166.13;4882404;28;117797;-62
2021/01/06 10:50:29;;;;;;;0.10;0.00;;;;;;;13.34;56.07;100164.75;4903661;28;98180;-62
2021/01/06 10:53:16;;;;;;;0.10;0.00;;;;;;;13.36;55.75;100157.13;4901976;28;97897;-62
2021/01/06 10:56:09;;;;;;;0.40;0.00;;;;;;;13.34;56.08;100149.28;4900593;28;98531;-62
2021/01/06 10:58:57;;;;;;;0.20;0.00;;;;;;;13.32;55.89;100154.19;4900079;28;106238;-62
2021/01/06 11:01:26;;;;;;;0.15;0.03;;;;;;;13.31;56.15;100152.59;4900005;28;98073;-62
2021/01/06 11:04:20;;;;;;;0.22;0.00;;;;;;;13.34;55.97;100148.50;4901774;28;98150;-63
2021/01/06 11:06:53;;;;;;;0.10;0.00;;;;;;;13.34;56.14;100145.78;4884871;28;98505;-62
2021/01/06 11:09:44;;;;;;;0.10;0.00;;;;;;;13.33;55.82;100145.00;4885228;28;99116;-63
2021/01/06 11:12:26;;;;;;;0.28;0.00;;;;;;;13.37;56.00;100142.50;4917047;28;98914;-62
2021/01/06 11:15:17;;;;;;;0.17;0.00;;;;;;;13.34;56.00;100134.97;4894765;28;97895;-63
2021/01/06 11:17:45;;;;;;;0.30;0.00;;;;;;;13.36;55.99;100135.47;4897803;28;107980;-62
2021/01/06 11:20:34;;;;;;;0.20;0.00;;;;;;;13.35;56.16;100131.16;4897295;28;98790;-62
2021/01/06 11:23:34;;;;;;;0.20;0.00;;;;;;;13.37;55.90;100129.75;4909685;28;97910;-62
2021/01/06 11:26:21;;;;;;;0.20;0.00;;;;;;;13.44;55.78;100126.66;4914667;28;98003;-62
2021/01/06 11:29:11;;;;;;;0.50;0.10;;;;;;;13.59;55.36;100114.81;4912416;28;98762;-62
2021/01/06 11:32:01;;;;;;;0.20;0.00;;;;;;;13.70;55.04;100113.53;4920750;28;98890;-62
2021/01/06 11:34:41;;;;;;;0.30;0.10;;;;;;;13.75;55.34;100106.16;4905382;28;98006;-62
2021/01/06 11:37:33;;;;;;;0.40;0.20;;;;;;;13.79;55.32;100108.25;4902866;28;97944;-63
2021/01/06 11:39:59;;;;;;;0.50;0.30;;;;;;;13.79;55.70;100111.75;4902750;28;98806;-62
2021/01/06 11:43:31;;;;;;;0.52;0.20;;;;;;;13.82;55.77;100108.44;4883101;28;98490;-62
2021/01/06 11:45:57;;;;;;;0.50;0.20;;;;;;;13.87;55.64;100111.09;4877438;28;98949;-62
2021/01/06 11:48:35;;;;;;;0.60;0.20;;;;;;;13.98;55.67;100109.00;4899066;28;116137;-62
2021/01/06 11:51:21;;;;;;;0.50;0.20;;;;;;;14.13;55.67;100106.00;4908987;28;98400;-62
2021/01/06 11:54:15;;;;;;;0.68;0.20;;;;;;;14.20;55.71;100097.50;4910966;28;115133;-62
2021/01/06 11:56:48;;;;;;;0.60;0.20;;;;;;;14.27;55.36;100089.75;4904864;28;98199;-62
2021/01/06 11:59:34;;;;;;;0.60;0.20;;;;;;;14.35;55.57;100091.78;4902077;28;110994;-63
2021/01/06 12:02:23;;;;;;;0.50;0.20;;;;;;;14.48;55.67;100090.16;4902326;28;99370;-63
2021/01/06 12:05:18;;;;;;;0.40;0.10;;;;;;;14.54;55.54;100083.56;4917831;28;120382;-62
2021/01/06 12:08:22;;;;;;;0.55;0.20;;;;;;;14.53;56.04;100081.13;4900406;28;99016;-62
2021/01/06 12:11:29;;;;;;;0.40;0.10;;;;;;;14.48;56.11;100082.81;4883488;28;98031;-62
2021/01/06 12:14:31;;;;;;;0.40;0.10;;;;;;;14.45;56.50;100078.00;4899386;28;117106;-63